sensor_id;sensor_type;location;lat;lon;timestamp;P1;durP1;ratioP1;P2;durP2;ratioP2
17510;SDS011;8873;48.818;9.422;2023-04-24T00:00:08;1.60;;;1.30;;
17510;SDS011;8873;48.818;9.422;2023-04-24T00:02:36;1.50;;;1.40;;
17510;SDS011;8873;48.818;9.422;2023-04-24T00:05:05;1.77;;;1.30;;
17510;SDS011;8873;48.818;9.422;2023-04-24T00:07:33;1.38;;;1.20;;
17510;SDS011;8873;48.818;9.422;2023-04-24T00:10:01;1.60;;;1.50;;
17510;SDS011;8873;48.818;9.422;2023-04-24T00:12:28;1.65;;;1.30;;
17510;SDS011;8873;48.818;9.422;2023-04-24T00:14:56;1.20;;;1.20;;
17510;SDS011;8873;48.818;9.422;2023-04-24T00:17:25;1.95;;;1.40;;
17510;SDS011;8873;48.818;9.422;2023-04-24T00:19:53;1.38;;;1.38;;
17510;SDS011;8873;48.818;9.422;2023-04-24T00:22:27;1.52;;;1.35;;
17510;SDS011;8873;48.818;9.422;2023-04-24T00:24:56;2.15;;;1.45;;
17510;SDS011;8873;48.818;9.422;2023-04-24T00:27:24;1.70;;;1.50;;
17510;SDS011;8873;48.818;9.422;2023-04-24T00:29:52;1.42;;;1.42;;
17510;SDS011;8873;48.818;9.422;2023-04-24T00:32:19;2.60;;;1.33;;
17510;SDS011;8873;48.818;9.422;2023-04-24T00:34:50;2.50;;;1.20;;
17510;SDS011;8873;48.818;9.422;2023-04-24T00:37:17;2.35;;;1.30;;
17510;SDS011;8873;48.818;9.422;2023-04-24T00:39:46;3.22;;;1.17;;
17510;SDS011;8873;48.818;9.422;2023-04-24T00:42:14;1.50;;;1.40;;
17510;SDS011;8873;48.818;9.422;2023-04-24T00:44:42;1.55;;;1.42;;
17510;SDS011;8873;48.818;9.422;2023-04-24T00:47:12;3.47;;;1.50;;
17510;SDS011;8873;48.818;9.422;2023-04-24T00:49:40;4.35;;;1.50;;
17510;SDS011;8873;48.818;9.422;2023-04-24T00:52:13;2.83;;;1.40;;
17510;SDS011;8873;48.818;9.422;2023-04-24T00:54:43;2.63;;;1.40;;
17510;SDS011;8873;48.818;9.422;2023-04-24T00:57:11;1.45;;;1.35;;
17510;SDS011;8873;48.818;9.422;2023-04-24T00:59:40;2.72;;;1.05;;
17510;SDS011;8873;48.818;9.422;2023-04-24T01:02:09;2.28;;;1.40;;
17510;SDS011;8873;48.818;9.422;2023-04-24T01:04:40;1.40;;;1.30;;
17510;SDS011;8873;48.818;9.422;2023-04-24T01:07:07;1.30;;;1.00;;
17510;SDS011;8873;48.818;9.422;2023-04-24T01:09:39;1.38;;;1.38;;
17510;SDS011;8873;48.818;9.422;2023-04-24T01:12:07;2.30;;;1.38;;
17510;SDS011;8873;48.818;9.422;2023-04-24T01:14:35;1.38;;;1.27;;
17510;SDS011;8873;48.818;9.422;2023-04-24T01:17:03;1.25;;;1.25;;
17510;SDS011;8873;48.818;9.422;2023-04-24T01:19:31;1.20;;;1.20;;
17510;SDS011;8873;48.818;9.422;2023-04-24T01:21:59;2.30;;;1.30;;
17510;SDS011;8873;48.818;9.422;2023-04-24T01:24:33;1.30;;;1.30;;
17510;SDS011;8873;48.818;9.422;2023-04-24T01:27:01;1.55;;;1.50;;
17510;SDS011;8873;48.818;9.422;2023-04-24T01:29:31;2.03;;;1.42;;
17510;SDS011;8873;48.818;9.422;2023-04-24T01:32:02;2.65;;;1.20;;
17510;SDS011;8873;48.818;9.422;2023-04-24T01:34:30;1.50;;;1.40;;
17510;SDS011;8873;48.818;9.422;2023-04-24T01:36:59;3.63;;;1.40;;
17510;SDS011;8873;48.818;9.422;2023-04-24T01:39:26;3.08;;;1.40;;
17510;SDS011;8873;48.818;9.422;2023-04-24T01:41:56;1.33;;;1.30;;
17510;SDS011;8873;48.818;9.422;2023-04-24T01:44:24;2.90;;;1.67;;
17510;SDS011;8873;48.818;9.422;2023-04-24T01:46:54;1.52;;;1.38;;
17510;SDS011;8873;48.818;9.422;2023-04-24T01:49:23;1.58;;;1.38;;
17510;SDS011;8873;48.818;9.422;2023-04-24T01:51:51;1.90;;;1.20;;
17510;SDS011;8873;48.818;9.422;2023-04-24T01:54:19;4.00;;;1.50;;
17510;SDS011;8873;48.818;9.422;2023-04-24T01:56:50;1.15;;;1.15;;
17510;SDS011;8873;48.818;9.422;2023-04-24T01:59:19;1.30;;;1.20;;
17510;SDS011;8873;48.818;9.422;2023-04-24T02:01:48;1.40;;;1.17;;
17510;SDS011;8873;48.818;9.422;2023-04-24T02:04:15;4.28;;;1.40;;
17510;SDS011;8873;48.818;9.422;2023-04-24T02:06:44;1.45;;;1.35;;
17510;SDS011;8873;48.818;9.422;2023-04-24T02:09:14;3.38;;;1.50;;
17510;SDS011;8873;48.818;9.422;2023-04-24T02:11:42;3.00;;;1.20;;
17510;SDS011;8873;48.818;9.422;2023-04-24T02:14:11;3.85;;;1.50;;
17510;SDS011;8873;48.818;9.422;2023-04-24T02:16:44;2.33;;;1.40;;
17510;SDS011;8873;48.818;9.422;2023-04-24T02:19:12;1.27;;;1.17;;
17510;SDS011;8873;48.818;9.422;2023-04-24T02:21:42;1.65;;;1.50;;
17510;SDS011;8873;48.818;9.422;2023-04-24T02:24:10;1.20;;;1.20;;
17510;SDS011;8873;48.818;9.422;2023-04-24T02:26:39;1.13;;;1.13;;
17510;SDS011;8873;48.818;9.422;2023-04-24T02:29:06;4.45;;;1.20;;
17510;SDS011;8873;48.818;9.422;2023-04-24T02:31:34;1.35;;;1.10;;
17510;SDS011;8873;48.818;9.422;2023-04-24T02:34:06;1.70;;;1.20;;
17510;SDS011;8873;48.818;9.422;2023-04-24T02:36:34;1.20;;;1.20;;
17510;SDS011;8873;48.818;9.422;2023-04-24T02:39:01;1.83;;;1.65;;
17510;SDS011;8873;48.818;9.422;2023-04-24T02:41:29;1.27;;;1.20;;
17510;SDS011;8873;48.818;9.422;2023-04-24T02:43:58;1.35;;;1.20;;
17510;SDS011;8873;48.818;9.422;2023-04-24T02:46:26;1.20;;;1.10;;
17510;SDS011;8873;48.818;9.422;2023-04-24T02:48:54;2.13;;;1.10;;
17510;SDS011;8873;48.818;9.422;2023-04-24T02:51:23;1.58;;;1.35;;
17510;SDS011;8873;48.818;9.422;2023-04-24T02:53:53;1.40;;;1.30;;
17510;SDS011;8873;48.818;9.422;2023-04-24T02:56:20;1.10;;;1.10;;
17510;SDS011;8873;48.818;9.422;2023-04-24T02:58:56;1.38;;;1.27;;
17510;SDS011;8873;48.818;9.422;2023-04-24T03:01:24;1.35;;;1.25;;
17510;SDS011;8873;48.818;9.422;2023-04-24T03:03:52;1.27;;;1.17;;
17510;SDS011;8873;48.818;9.422;2023-04-24T03:06:19;1.30;;;1.20;;
17510;SDS011;8873;48.818;9.422;2023-04-24T03:08:49;2.25;;;1.25;;
17510;SDS011;8873;48.818;9.422;2023-04-24T03:11:16;1.27;;;1.17;;
17510;SDS011;8873;48.818;9.422;2023-04-24T03:13:44;3.50;;;2.63;;
17510;SDS011;8873;48.818;9.422;2023-04-24T03:16:12;1.50;;;1.20;;
17510;SDS011;8873;48.818;9.422;2023-04-24T03:18:39;1.58;;;1.20;;
17510;SDS011;8873;48.818;9.422;2023-04-24T03:21:07;1.40;;;1.30;;
17510;SDS011;8873;48.818;9.422;2023-04-24T03:23:34;5.07;;;1.33;;
17510;SDS011;8873;48.818;9.422;2023-04-24T03:26:03;1.30;;;1.20;;
17510;SDS011;8873;48.818;9.422;2023-04-24T03:28:31;1.80;;;1.40;;
17510;SDS011;8873;48.818;9.422;2023-04-24T03:30:59;1.50;;;1.40;;
17510;SDS011;8873;48.818;9.422;2023-04-24T03:33:26;1.45;;;1.35;;
17510;SDS011;8873;48.818;9.422;2023-04-24T03:35:54;1.30;;;1.20;;
17510;SDS011;8873;48.818;9.422;2023-04-24T03:38:21;1.58;;;1.25;;
17510;SDS011;8873;48.818;9.422;2023-04-24T03:40:50;1.13;;;1.10;;
17510;SDS011;8873;48.818;9.422;2023-04-24T03:43:20;2.47;;;1.30;;
17510;SDS011;8873;48.818;9.422;2023-04-24T03:45:48;1.20;;;1.20;;
17510;SDS011;8873;48.818;9.422;2023-04-24T03:48:18;2.90;;;1.92;;
17510;SDS011;8873;48.818;9.422;2023-04-24T03:50:48;2.03;;;1.30;;
17510;SDS011;8873;48.818;9.422;2023-04-24T03:53:16;1.15;;;1.15;;
17510;SDS011;8873;48.818;9.422;2023-04-24T03:55:46;1.23;;;1.23;;
17510;SDS011;8873;48.818;9.422;2023-04-24T03:58:17;1.80;;;1.30;;
17510;SDS011;8873;48.818;9.422;2023-04-24T04:00:49;1.13;;;1.10;;
17510;SDS011;8873;48.818;9.422;2023-04-24T04:03:19;2.25;;;1.20;;
17510;SDS011;8873;48.818;9.422;2023-04-24T04:05:47;1.38;;;1.38;;
17510;SDS011;8873;48.818;9.422;2023-04-24T04:08:15;1.52;;;1.42;;
17510;SDS011;8873;48.818;9.422;2023-04-24T04:10:43;1.20;;;1.20;;
17510;SDS011;8873;48.818;9.422;2023-04-24T04:13:10;1.13;;;1.10;;
17510;SDS011;8873;48.818;9.422;2023-04-24T04:15:38;2.15;;;1.00;;
17510;SDS011;8873;48.818;9.422;2023-04-24T04:18:07;1.00;;;1.00;;
17510;SDS011;8873;48.818;9.422;2023-04-24T04:20:35;1.33;;;1.20;;
17510;SDS011;8873;48.818;9.422;2023-04-24T04:23:05;5.38;;;1.40;;
17510;SDS011;8873;48.818;9.422;2023-04-24T04:25:32;1.02;;;1.02;;
17510;SDS011;8873;48.818;9.422;2023-04-24T04:28:00;2.17;;;1.30;;
17510;SDS011;8873;48.818;9.422;2023-04-24T04:30:31;2.75;;;1.13;;
17510;SDS011;8873;48.818;9.422;2023-04-24T04:33:04;1.10;;;1.10;;
17510;SDS011;8873;48.818;9.422;2023-04-24T04:35:38;0.80;;;0.80;;
17510;SDS011;8873;48.818;9.422;2023-04-24T04:38:06;1.40;;;1.30;;
17510;SDS011;8873;48.818;9.422;2023-04-24T04:40:37;1.85;;;1.33;;
17510;SDS011;8873;48.818;9.422;2023-04-24T04:43:04;1.60;;;1.08;;
17510;SDS011;8873;48.818;9.422;2023-04-24T04:45:33;2.08;;;1.30;;
17510;SDS011;8873;48.818;9.422;2023-04-24T04:48:03;1.30;;;1.20;;
17510;SDS011;8873;48.818;9.422;2023-04-24T04:50:35;1.65;;;1.17;;
17510;SDS011;8873;48.818;9.422;2023-04-24T04:53:07;1.80;;;1.10;;
17510;SDS011;8873;48.818;9.422;2023-04-24T04:55:38;0.90;;;0.90;;
17510;SDS011;8873;48.818;9.422;2023-04-24T04:58:07;1.70;;;1.50;;
17510;SDS011;8873;48.818;9.422;2023-04-24T05:00:36;1.48;;;1.23;;
17510;SDS011;8873;48.818;9.422;2023-04-24T05:03:04;2.03;;;1.55;;
17510;SDS011;8873;48.818;9.422;2023-04-24T05:05:46;1.30;;;1.30;;
17510;SDS011;8873;48.818;9.422;2023-04-24T05:08:15;2.40;;;1.30;;
17510;SDS011;8873;48.818;9.422;2023-04-24T05:10:53;2.70;;;1.50;;
17510;SDS011;8873;48.818;9.422;2023-04-24T05:13:21;2.25;;;1.70;;
17510;SDS011;8873;48.818;9.422;2023-04-24T05:16:06;3.60;;;1.60;;
17510;SDS011;8873;48.818;9.422;2023-04-24T05:18:37;1.85;;;1.75;;
17510;SDS011;8873;48.818;9.422;2023-04-24T05:21:05;1.70;;;1.60;;
17510;SDS011;8873;48.818;9.422;2023-04-24T05:23:40;1.90;;;1.60;;
17510;SDS011;8873;48.818;9.422;2023-04-24T05:26:09;1.83;;;1.70;;
17510;SDS011;8873;48.818;9.422;2023-04-24T05:28:37;4.35;;;2.05;;
17510;SDS011;8873;48.818;9.422;2023-04-24T05:31:05;1.85;;;1.52;;
17510;SDS011;8873;48.818;9.422;2023-04-24T05:33:33;1.73;;;1.60;;
17510;SDS011;8873;48.818;9.422;2023-04-24T05:36:01;1.60;;;1.58;;
17510;SDS011;8873;48.818;9.422;2023-04-24T05:38:33;2.30;;;2.20;;
17510;SDS011;8873;48.818;9.422;2023-04-24T05:41:02;5.03;;;4.13;;
17510;SDS011;8873;48.818;9.422;2023-04-24T05:43:30;3.70;;;2.60;;
17510;SDS011;8873;48.818;9.422;2023-04-24T05:46:01;3.17;;;2.22;;
17510;SDS011;8873;48.818;9.422;2023-04-24T05:48:29;1.70;;;1.60;;
17510;SDS011;8873;48.818;9.422;2023-04-24T05:50:58;2.30;;;1.65;;
17510;SDS011;8873;48.818;9.422;2023-04-24T05:53:28;5.90;;;2.05;;
17510;SDS011;8873;48.818;9.422;2023-04-24T05:55:57;3.03;;;1.70;;
17510;SDS011;8873;48.818;9.422;2023-04-24T05:58:26;1.70;;;1.60;;
17510;SDS011;8873;48.818;9.422;2023-04-24T06:00:54;4.60;;;2.10;;
17510;SDS011;8873;48.818;9.422;2023-04-24T06:03:23;2.25;;;2.05;;
17510;SDS011;8873;48.818;9.422;2023-04-24T06:05:52;3.33;;;2.40;;
17510;SDS011;8873;48.818;9.422;2023-04-24T06:08:22;2.10;;;1.90;;
17510;SDS011;8873;48.818;9.422;2023-04-24T06:10:52;2.03;;;1.92;;
17510;SDS011;8873;48.818;9.422;2023-04-24T06:13:23;2.13;;;1.90;;
17510;SDS011;8873;48.818;9.422;2023-04-24T06:15:56;1.80;;;1.70;;
17510;SDS011;8873;48.818;9.422;2023-04-24T06:18:27;1.65;;;1.65;;
17510;SDS011;8873;48.818;9.422;2023-04-24T06:20:55;1.90;;;1.70;;
17510;SDS011;8873;48.818;9.422;2023-04-24T06:23:23;2.83;;;1.80;;
17510;SDS011;8873;48.818;9.422;2023-04-24T06:25:53;3.53;;;1.88;;
17510;SDS011;8873;48.818;9.422;2023-04-24T06:28:21;3.65;;;1.88;;
17510;SDS011;8873;48.818;9.422;2023-04-24T06:30:50;1.70;;;1.60;;
17510;SDS011;8873;48.818;9.422;2023-04-24T06:33:21;3.60;;;1.70;;
17510;SDS011;8873;48.818;9.422;2023-04-24T06:35:51;2.00;;;1.90;;
17510;SDS011;8873;48.818;9.422;2023-04-24T06:38:20;2.97;;;1.92;;
17510;SDS011;8873;48.818;9.422;2023-04-24T06:40:48;1.80;;;1.67;;
17510;SDS011;8873;48.818;9.422;2023-04-24T06:43:16;5.05;;;2.08;;
17510;SDS011;8873;48.818;9.422;2023-04-24T06:45:45;2.08;;;1.80;;
17510;SDS011;8873;48.818;9.422;2023-04-24T06:48:16;1.60;;;1.60;;
17510;SDS011;8873;48.818;9.422;2023-04-24T06:50:49;2.45;;;1.92;;
17510;SDS011;8873;48.818;9.422;2023-04-24T06:53:19;1.85;;;1.80;;
17510;SDS011;8873;48.818;9.422;2023-04-24T06:55:47;2.50;;;2.30;;
17510;SDS011;8873;48.818;9.422;2023-04-24T06:58:17;3.03;;;1.92;;
17510;SDS011;8873;48.818;9.422;2023-04-24T07:00:46;2.35;;;1.90;;
17510;SDS011;8873;48.818;9.422;2023-04-24T07:03:14;1.80;;;1.70;;
17510;SDS011;8873;48.818;9.422;2023-04-24T07:05:42;2.17;;;1.98;;
17510;SDS011;8873;48.818;9.422;2023-04-24T07:08:12;2.45;;;1.60;;
17510;SDS011;8873;48.818;9.422;2023-04-24T07:10:40;1.95;;;1.77;;
17510;SDS011;8873;48.818;9.422;2023-04-24T07:13:09;3.17;;;2.40;;
17510;SDS011;8873;48.818;9.422;2023-04-24T07:15:38;3.38;;;2.08;;
17510;SDS011;8873;48.818;9.422;2023-04-24T07:18:07;3.67;;;2.25;;
17510;SDS011;8873;48.818;9.422;2023-04-24T07:20:35;6.55;;;2.28;;
17510;SDS011;8873;48.818;9.422;2023-04-24T07:23:03;4.03;;;2.17;;
17510;SDS011;8873;48.818;9.422;2023-04-24T07:25:35;5.75;;;2.03;;
17510;SDS011;8873;48.818;9.422;2023-04-24T07:28:06;14.50;;;3.13;;
17510;SDS011;8873;48.818;9.422;2023-04-24T07:30:36;3.25;;;2.30;;
17510;SDS011;8873;48.818;9.422;2023-04-24T07:33:08;2.60;;;2.20;;
17510;SDS011;8873;48.818;9.422;2023-04-24T07:35:39;4.40;;;2.20;;
17510;SDS011;8873;48.818;9.422;2023-04-24T07:38:07;3.10;;;2.08;;
17510;SDS011;8873;48.818;9.422;2023-04-24T07:40:36;2.13;;;1.80;;
17510;SDS011;8873;48.818;9.422;2023-04-24T07:43:05;2.25;;;2.15;;
17510;SDS011;8873;48.818;9.422;2023-04-24T07:45:34;6.32;;;2.10;;
17510;SDS011;8873;48.818;9.422;2023-04-24T07:48:04;2.30;;;2.20;;
17510;SDS011;8873;48.818;9.422;2023-04-24T07:50:31;1.88;;;1.77;;
17510;SDS011;8873;48.818;9.422;2023-04-24T07:52:59;4.60;;;1.92;;
17510;SDS011;8873;48.818;9.422;2023-04-24T07:55:27;2.10;;;1.90;;
17510;SDS011;8873;48.818;9.422;2023-04-24T07:57:58;1.92;;;1.83;;
17510;SDS011;8873;48.818;9.422;2023-04-24T08:00:26;1.95;;;1.85;;
17510;SDS011;8873;48.818;9.422;2023-04-24T08:02:55;2.05;;;1.95;;
17510;SDS011;8873;48.818;9.422;2023-04-24T08:05:23;2.13;;;2.00;;
17510;SDS011;8873;48.818;9.422;2023-04-24T08:07:52;2.22;;;2.03;;
17510;SDS011;8873;48.818;9.422;2023-04-24T08:10:22;1.83;;;1.70;;
17510;SDS011;8873;48.818;9.422;2023-04-24T08:12:50;2.35;;;1.88;;
17510;SDS011;8873;48.818;9.422;2023-04-24T08:15:22;1.60;;;1.50;;
17510;SDS011;8873;48.818;9.422;2023-04-24T08:17:49;1.48;;;1.48;;
17510;SDS011;8873;48.818;9.422;2023-04-24T08:20:17;2.05;;;1.50;;
17510;SDS011;8873;48.818;9.422;2023-04-24T08:22:45;1.42;;;1.42;;
17510;SDS011;8873;48.818;9.422;2023-04-24T08:25:15;1.48;;;1.48;;
17510;SDS011;8873;48.818;9.422;2023-04-24T08:27:45;2.05;;;1.58;;
17510;SDS011;8873;48.818;9.422;2023-04-24T08:30:13;1.85;;;1.70;;
17510;SDS011;8873;48.818;9.422;2023-04-24T08:32:43;1.80;;;1.70;;
17510;SDS011;8873;48.818;9.422;2023-04-24T08:35:11;2.55;;;1.90;;
17510;SDS011;8873;48.818;9.422;2023-04-24T08:37:39;2.08;;;1.60;;
17510;SDS011;8873;48.818;9.422;2023-04-24T08:40:10;2.70;;;1.75;;
17510;SDS011;8873;48.818;9.422;2023-04-24T08:42:42;1.92;;;1.83;;
17510;SDS011;8873;48.818;9.422;2023-04-24T08:45:11;1.90;;;1.77;;
17510;SDS011;8873;48.818;9.422;2023-04-24T08:47:41;2.03;;;1.92;;
17510;SDS011;8873;48.818;9.422;2023-04-24T08:50:12;2.45;;;1.98;;
17510;SDS011;8873;48.818;9.422;2023-04-24T08:52:39;1.70;;;1.60;;
17510;SDS011;8873;48.818;9.422;2023-04-24T08:55:08;3.10;;;1.50;;
17510;SDS011;8873;48.818;9.422;2023-04-24T08:57:36;1.65;;;1.60;;
17510;SDS011;8873;48.818;9.422;2023-04-24T09:00:06;2.10;;;2.00;;
17510;SDS011;8873;48.818;9.422;2023-04-24T09:02:38;1.73;;;1.63;;
17510;SDS011;8873;48.818;9.422;2023-04-24T09:05:07;1.67;;;1.67;;
17510;SDS011;8873;48.818;9.422;2023-04-24T09:07:38;2.80;;;1.75;;
17510;SDS011;8873;48.818;9.422;2023-04-24T09:10:07;1.80;;;1.70;;
17510;SDS011;8873;48.818;9.422;2023-04-24T09:12:36;2.10;;;1.90;;
17510;SDS011;8873;48.818;9.422;2023-04-24T09:15:04;2.35;;;1.90;;
17510;SDS011;8873;48.818;9.422;2023-04-24T09:17:34;1.80;;;1.70;;
17510;SDS011;8873;48.818;9.422;2023-04-24T09:20:05;3.28;;;1.95;;
17510;SDS011;8873;48.818;9.422;2023-04-24T09:22:33;3.03;;;1.83;;
17510;SDS011;8873;48.818;9.422;2023-04-24T09:25:04;2.92;;;2.60;;
17510;SDS011;8873;48.818;9.422;2023-04-24T09:27:34;1.30;;;1.30;;
17510;SDS011;8873;48.818;9.422;2023-04-24T09:30:02;3.80;;;1.60;;
17510;SDS011;8873;48.818;9.422;2023-04-24T09:32:33;3.33;;;1.63;;
17510;SDS011;8873;48.818;9.422;2023-04-24T09:35:06;1.85;;;1.50;;
17510;SDS011;8873;48.818;9.422;2023-04-24T09:37:36;1.83;;;1.73;;
17510;SDS011;8873;48.818;9.422;2023-04-24T09:40:10;2.15;;;1.80;;
17510;SDS011;8873;48.818;9.422;2023-04-24T09:42:39;2.10;;;2.00;;
17510;SDS011;8873;48.818;9.422;2023-04-24T09:45:10;2.15;;;1.95;;
17510;SDS011;8873;48.818;9.422;2023-04-24T09:47:42;1.30;;;1.30;;
17510;SDS011;8873;48.818;9.422;2023-04-24T09:50:13;4.32;;;1.70;;
17510;SDS011;8873;48.818;9.422;2023-04-24T09:52:56;1.70;;;1.60;;
17510;SDS011;8873;48.818;9.422;2023-04-24T09:55:29;1.80;;;1.70;;
17510;SDS011;8873;48.818;9.422;2023-04-24T09:57:58;2.80;;;1.70;;
17510;SDS011;8873;48.818;9.422;2023-04-24T10:00:27;1.80;;;1.70;;
17510;SDS011;8873;48.818;9.422;2023-04-24T10:02:59;1.88;;;1.77;;
17510;SDS011;8873;48.818;9.422;2023-04-24T10:05:30;2.22;;;1.70;;
17510;SDS011;8873;48.818;9.422;2023-04-24T10:08:03;1.80;;;1.65;;
17510;SDS011;8873;48.818;9.422;2023-04-24T10:10:33;1.88;;;1.70;;
17510;SDS011;8873;48.818;9.422;2023-04-24T10:13:03;1.80;;;1.70;;
17510;SDS011;8873;48.818;9.422;2023-04-24T10:15:31;4.47;;;1.95;;
17510;SDS011;8873;48.818;9.422;2023-04-24T10:18:00;2.08;;;1.98;;
17510;SDS011;8873;48.818;9.422;2023-04-24T10:20:29;1.80;;;1.70;;
17510;SDS011;8873;48.818;9.422;2023-04-24T10:22:59;2.85;;;2.17;;
17510;SDS011;8873;48.818;9.422;2023-04-24T10:25:28;3.35;;;1.83;;
17510;SDS011;8873;48.818;9.422;2023-04-24T10:28:01;1.80;;;1.75;;
17510;SDS011;8873;48.818;9.422;2023-04-24T10:30:32;1.70;;;1.60;;
17510;SDS011;8873;48.818;9.422;2023-04-24T10:33:06;3.15;;;1.67;;
17510;SDS011;8873;48.818;9.422;2023-04-24T10:35:35;2.75;;;1.67;;
17510;SDS011;8873;48.818;9.422;2023-04-24T10:38:05;3.53;;;1.60;;
17510;SDS011;8873;48.818;9.422;2023-04-24T10:40:35;1.98;;;1.73;;
17510;SDS011;8873;48.818;9.422;2023-04-24T10:43:07;2.10;;;1.70;;
17510;SDS011;8873;48.818;9.422;2023-04-24T10:45:40;1.52;;;1.40;;
17510;SDS011;8873;48.818;9.422;2023-04-24T10:48:09;2.25;;;1.73;;
17510;SDS011;8873;48.818;9.422;2023-04-24T10:50:44;2.40;;;1.48;;
17510;SDS011;8873;48.818;9.422;2023-04-24T10:53:13;1.80;;;1.70;;
17510;SDS011;8873;48.818;9.422;2023-04-24T10:55:41;3.20;;;1.55;;
17510;SDS011;8873;48.818;9.422;2023-04-24T10:58:11;5.95;;;1.67;;
17510;SDS011;8873;48.818;9.422;2023-04-24T11:00:39;1.77;;;1.60;;
17510;SDS011;8873;48.818;9.422;2023-04-24T11:03:22;2.00;;;1.50;;
17510;SDS011;8873;48.818;9.422;2023-04-24T11:05:52;1.98;;;1.88;;
17510;SDS011;8873;48.818;9.422;2023-04-24T11:08:23;1.90;;;1.75;;
17510;SDS011;8873;48.818;9.422;2023-04-24T11:10:55;3.03;;;2.83;;
17510;SDS011;8873;48.818;9.422;2023-04-24T11:13:25;1.80;;;1.70;;
17510;SDS011;8873;48.818;9.422;2023-04-24T11:16:12;1.98;;;1.88;;
17510;SDS011;8873;48.818;9.422;2023-04-24T11:18:40;2.47;;;1.60;;
17510;SDS011;8873;48.818;9.422;2023-04-24T11:21:11;2.03;;;1.92;;
17510;SDS011;8873;48.818;9.422;2023-04-24T11:23:39;2.78;;;1.88;;
17510;SDS011;8873;48.818;9.422;2023-04-24T11:26:10;2.17;;;1.92;;
17510;SDS011;8873;48.818;9.422;2023-04-24T11:28:44;3.15;;;1.75;;
17510;SDS011;8873;48.818;9.422;2023-04-24T11:34:05;3.70;;;1.83;;
17510;SDS011;8873;48.818;9.422;2023-04-24T11:36:32;3.90;;;1.88;;
17510;SDS011;8873;48.818;9.422;2023-04-24T11:39:01;2.03;;;1.70;;
17510;SDS011;8873;48.818;9.422;2023-04-24T11:41:28;2.15;;;1.90;;
17510;SDS011;8873;48.818;9.422;2023-04-24T11:43:57;4.25;;;1.50;;
17510;SDS011;8873;48.818;9.422;2023-04-24T11:46:28;1.67;;;1.50;;
17510;SDS011;8873;48.818;9.422;2023-04-24T11:48:58;1.58;;;1.58;;
17510;SDS011;8873;48.818;9.422;2023-04-24T11:51:26;2.00;;;1.85;;
17510;SDS011;8873;48.818;9.422;2023-04-24T11:54:02;2.88;;;2.00;;
17510;SDS011;8873;48.818;9.422;2023-04-24T11:56:30;2.08;;;1.98;;
17510;SDS011;8873;48.818;9.422;2023-04-24T11:58:59;2.70;;;2.10;;
17510;SDS011;8873;48.818;9.422;2023-04-24T12:01:26;2.50;;;1.58;;
17510;SDS011;8873;48.818;9.422;2023-04-24T12:03:59;2.15;;;1.75;;
17510;SDS011;8873;48.818;9.422;2023-04-24T12:06:27;2.40;;;1.60;;
17510;SDS011;8873;48.818;9.422;2023-04-24T12:08:54;2.92;;;1.70;;
17510;SDS011;8873;48.818;9.422;2023-04-24T12:11:36;1.65;;;1.60;;
17510;SDS011;8873;48.818;9.422;2023-04-24T12:14:20;3.10;;;1.80;;
17510;SDS011;8873;48.818;9.422;2023-04-24T12:16:48;1.80;;;1.70;;
17510;SDS011;8873;48.818;9.422;2023-04-24T12:19:20;2.25;;;1.30;;
17510;SDS011;8873;48.818;9.422;2023-04-24T12:21:58;1.85;;;1.67;;
17510;SDS011;8873;48.818;9.422;2023-04-24T12:24:26;1.35;;;1.35;;
17510;SDS011;8873;48.818;9.422;2023-04-24T12:26:54;1.58;;;1.48;;
17510;SDS011;8873;48.818;9.422;2023-04-24T12:29:24;1.90;;;1.80;;
17510;SDS011;8873;48.818;9.422;2023-04-24T12:31:52;3.42;;;2.00;;
17510;SDS011;8873;48.818;9.422;2023-04-24T12:34:20;1.85;;;1.52;;
17510;SDS011;8873;48.818;9.422;2023-04-24T12:36:47;2.17;;;1.95;;
17510;SDS011;8873;48.818;9.422;2023-04-24T12:39:15;12.80;;;2.85;;
17510;SDS011;8873;48.818;9.422;2023-04-24T12:41:50;1.80;;;1.70;;
17510;SDS011;8873;48.818;9.422;2023-04-24T12:44:18;3.63;;;1.98;;
17510;SDS011;8873;48.818;9.422;2023-04-24T12:46:47;1.90;;;1.80;;
17510;SDS011;8873;48.818;9.422;2023-04-24T12:49:15;1.80;;;1.70;;
17510;SDS011;8873;48.818;9.422;2023-04-24T12:51:42;2.45;;;1.65;;
17510;SDS011;8873;48.818;9.422;2023-04-24T12:54:10;3.80;;;1.50;;
17510;SDS011;8873;48.818;9.422;2023-04-24T12:56:38;1.70;;;1.60;;
17510;SDS011;8873;48.818;9.422;2023-04-24T12:59:05;1.90;;;1.80;;
17510;SDS011;8873;48.818;9.422;2023-04-24T13:01:33;4.55;;;2.47;;
17510;SDS011;8873;48.818;9.422;2023-04-24T13:04:02;1.83;;;1.73;;
17510;SDS011;8873;48.818;9.422;2023-04-24T13:06:30;1.70;;;1.60;;
17510;SDS011;8873;48.818;9.422;2023-04-24T13:08:57;1.70;;;1.60;;
17510;SDS011;8873;48.818;9.422;2023-04-24T13:11:25;1.80;;;1.80;;
17510;SDS011;8873;48.818;9.422;2023-04-24T13:13:52;2.90;;;1.50;;
17510;SDS011;8873;48.818;9.422;2023-04-24T13:16:20;1.77;;;1.70;;
17510;SDS011;8873;48.818;9.422;2023-04-24T13:18:49;1.90;;;1.73;;
17510;SDS011;8873;48.818;9.422;2023-04-24T13:21:18;2.10;;;1.98;;
17510;SDS011;8873;48.818;9.422;2023-04-24T13:23:46;2.72;;;2.00;;
17510;SDS011;8873;48.818;9.422;2023-04-24T13:26:13;2.10;;;1.98;;
17510;SDS011;8873;48.818;9.422;2023-04-24T13:28:41;2.10;;;2.00;;
17510;SDS011;8873;48.818;9.422;2023-04-24T13:31:08;2.22;;;1.88;;
17510;SDS011;8873;48.818;9.422;2023-04-24T13:33:36;3.50;;;2.28;;
17510;SDS011;8873;48.818;9.422;2023-04-24T13:36:04;2.30;;;2.10;;
17510;SDS011;8873;48.818;9.422;2023-04-24T13:38:33;3.53;;;2.20;;
17510;SDS011;8873;48.818;9.422;2023-04-24T13:41:00;4.25;;;2.28;;
17510;SDS011;8873;48.818;9.422;2023-04-24T13:43:28;2.10;;;1.90;;
17510;SDS011;8873;48.818;9.422;2023-04-24T13:45:56;3.22;;;2.10;;
17510;SDS011;8873;48.818;9.422;2023-04-24T13:48:25;1.63;;;1.63;;
17510;SDS011;8873;48.818;9.422;2023-04-24T13:50:53;1.85;;;1.75;;
17510;SDS011;8873;48.818;9.422;2023-04-24T13:53:21;1.90;;;1.80;;
17510;SDS011;8873;48.818;9.422;2023-04-24T13:55:50;2.10;;;1.90;;
17510;SDS011;8873;48.818;9.422;2023-04-24T13:58:17;2.53;;;1.73;;
17510;SDS011;8873;48.818;9.422;2023-04-24T14:00:45;1.85;;;1.75;;
17510;SDS011;8873;48.818;9.422;2023-04-24T14:03:13;3.60;;;1.73;;
17510;SDS011;8873;48.818;9.422;2023-04-24T14:05:40;3.35;;;2.10;;
17510;SDS011;8873;48.818;9.422;2023-04-24T14:08:08;1.90;;;1.83;;
17510;SDS011;8873;48.818;9.422;2023-04-24T14:10:35;1.77;;;1.70;;
17510;SDS011;8873;48.818;9.422;2023-04-24T14:13:04;3.22;;;2.38;;
17510;SDS011;8873;48.818;9.422;2023-04-24T14:15:32;2.95;;;2.05;;
17510;SDS011;8873;48.818;9.422;2023-04-24T14:18:00;1.85;;;1.75;;
17510;SDS011;8873;48.818;9.422;2023-04-24T14:20:30;1.75;;;1.65;;
17510;SDS011;8873;48.818;9.422;2023-04-24T14:22:58;1.90;;;1.80;;
17510;SDS011;8873;48.818;9.422;2023-04-24T14:25:25;1.55;;;1.55;;
17510;SDS011;8873;48.818;9.422;2023-04-24T14:27:53;2.25;;;1.70;;
17510;SDS011;8873;48.818;9.422;2023-04-24T14:30:22;1.70;;;1.60;;
17510;SDS011;8873;48.818;9.422;2023-04-24T14:32:50;1.73;;;1.63;;
17510;SDS011;8873;48.818;9.422;2023-04-24T14:35:17;2.65;;;1.83;;
17510;SDS011;8873;48.818;9.422;2023-04-24T14:37:45;1.90;;;1.80;;
17510;SDS011;8873;48.818;9.422;2023-04-24T14:40:14;1.90;;;1.80;;
17510;SDS011;8873;48.818;9.422;2023-04-24T14:42:46;2.10;;;2.00;;
17510;SDS011;8873;48.818;9.422;2023-04-24T14:45:13;2.10;;;2.00;;
17510;SDS011;8873;48.818;9.422;2023-04-24T14:47:42;1.60;;;1.60;;
17510;SDS011;8873;48.818;9.422;2023-04-24T14:50:10;5.18;;;2.00;;
17510;SDS011;8873;48.818;9.422;2023-04-24T14:52:38;1.98;;;1.88;;
17510;SDS011;8873;48.818;9.422;2023-04-24T14:55:06;1.70;;;1.60;;
17510;SDS011;8873;48.818;9.422;2023-04-24T14:57:34;3.85;;;1.92;;
17510;SDS011;8873;48.818;9.422;2023-04-24T15:00:02;1.40;;;1.40;;
17510;SDS011;8873;48.818;9.422;2023-04-24T15:02:32;2.00;;;1.80;;
17510;SDS011;8873;48.818;9.422;2023-04-24T15:05:02;4.28;;;1.60;;
17510;SDS011;8873;48.818;9.422;2023-04-24T15:07:30;3.47;;;1.70;;
17510;SDS011;8873;48.818;9.422;2023-04-24T15:09:58;1.63;;;1.63;;
17510;SDS011;8873;48.818;9.422;2023-04-24T15:12:25;1.50;;;1.40;;
17510;SDS011;8873;48.818;9.422;2023-04-24T15:14:54;1.73;;;1.63;;